Time;durP1;ratioP1;P1;durP2;ratioP2;P2;SDS_P1;SDS_P2;PMS_P1;PMS_P2;Temp;Humidity;BMP_temperature;BMP_pressure;BME280_temperature;BME280_humidity;BME280_pressure;Samples;Min_cycle;Max_cycle;Signal;HPM_P1;HPM_P2
2021/12/11 05:42:05;;;;;;;25.00;15.23;;;;;;;7.19;97.20;99933.27;1712950;82;21094;-38
2021/12/11 05:44:33;;;;;;;21.07;15.40;;;;;;;7.17;96.98;99932.36;1672385;86;21622;-46
2021/12/11 05:47:02;;;;;;;24.50;13.68;;;;;;;7.15;97.16;99930.19;1725534;82;21049;-39
2021/12/11 05:49:29;;;;;;;25.90;15.20;;;;;;;7.15;97.12;99932.79;1752980;82;21088;-38
2021/12/11 05:51:56;;;;;;;26.27;15.80;;;;;;;7.13;97.21;99930.19;1751416;82;21080;-38
2021/12/11 05:54:25;;;;;;;25.50;15.65;;;;;;;7.13;97.37;99918.48;1747644;82;21087;-38
2021/12/11 05:56:55;;;;;;;21.40;15.10;;;;;;;7.13;97.26;99918.48;1740002;82;21088;-38
2021/12/11 05:59:21;;;;;;;23.57;14.20;;;;;;;7.14;97.35;99912.84;1711589;84;21492;-38
2021/12/11 06:01:57;;;;;;;22.30;14.65;;;;;;;7.14;97.41;99912.84;1711920;82;21052;-46
2021/12/11 06:04:28;;;;;;;21.25;14.75;;;;;;;7.13;97.46;99913.27;1655605;85;21565;-38
2021/12/11 06:06:55;;;;;;;23.18;14.45;;;;;;;7.14;97.18;99905.03;1668383;85;21049;-38
2021/12/11 06:09:23;;;;;;;26.55;16.15;;;;;;;7.11;97.24;99905.87;1672998;85;21003;-38
2021/12/11 06:11:52;;;;;;;21.17;14.30;;;;;;;7.09;97.50;99904.13;1667916;85;21130;-45
2021/12/11 06:14:19;;;;;;;20.68;14.25;;;;;;;7.10;97.65;99900.66;1650825;86;21026;-39
2021/12/11 06:16:47;;;;;;;30.60;17.23;;;;;;;7.10;97.69;99905.43;1648915;86;21141;-45
2021/12/11 06:19:14;;;;;;;25.05;16.02;;;;;;;7.12;97.51;99896.33;1661026;85;21129;-45
2021/12/11 06:21:43;;;;;;;24.90;16.00;;;;;;;7.14;97.31;99895.93;1648800;86;21618;-46
2021/12/11 06:24:10;;;;;;;25.90;16.20;;;;;;;7.16;97.30;99881.19;1647885;86;21098;-45
2021/12/11 06:26:36;;;;;;;34.70;17.55;;;;;;;7.14;97.42;99891.59;1646693;86;21771;-40
2021/12/11 06:29:03;;;;;;;26.62;16.17;;;;;;;7.15;97.56;99892.46;1651572;86;21063;-38
2021/12/11 06:31:30;;;;;;;21.90;15.50;;;;;;;7.14;97.62;99886.83;1649179;85;21078;-46
2021/12/11 06:33:58;;;;;;;27.80;16.42;;;;;;;7.15;97.57;99888.56;1647290;86;21038;-38
2021/12/11 06:36:26;;;;;;;27.52;15.70;;;;;;;7.15;97.65;99894.63;1650589;86;21141;-45
2021/12/11 06:38:59;;;;;;;27.75;16.40;;;;;;;7.16;97.71;99902.00;1649126;86;21529;-46
2021/12/11 06:41:31;;;;;;;26.93;17.10;;;;;;;7.16;97.65;99893.77;1673792;84;21033;-38
2021/12/11 06:43:58;;;;;;;26.23;17.12;;;;;;;7.17;97.43;99886.39;1702711;84;20966;-38
2021/12/11 06:46:25;;;;;;;25.55;16.23;;;;;;;7.15;97.56;99888.56;1702441;84;21120;-39
2021/12/11 06:48:51;;;;;;;24.52;16.00;;;;;;;7.16;97.76;99894.20;1695648;84;21083;-45
2021/12/11 06:51:19;;;;;;;28.70;16.70;;;;;;;7.17;97.93;99895.50;1703034;83;21628;-45
2021/12/11 06:53:53;;;;;;;23.45;16.85;;;;;;;7.19;97.89;99902.91;1706149;83;21513;-45
2021/12/11 06:56:20;;;;;;;31.82;17.92;;;;;;;7.18;98.87;99894.64;1734248;82;21057;-46
2021/12/11 06:58:48;;;;;;;32.23;18.10;;;;;;;7.17;99.47;99894.63;1699934;82;21025;-39
2021/12/11 07:01:14;;;;;;;30.32;18.15;;;;;;;7.14;99.90;99898.53;1719167;82;21061;-38
2021/12/11 07:03:41;;;;;;;29.20;17.10;;;;;;;7.10;100.00;99893.72;1725338;82;21410;-45
2021/12/11 07:06:08;;;;;;;29.18;15.90;;;;;;;7.08;100.00;99901.95;1711365;82;21486;-45
2021/12/11 07:08:38;;;;;;;30.40;17.32;;;;;;;7.07;100.00;99909.29;1731089;82;20949;-38
2021/12/11 07:11:10;;;;;;;28.45;17.62;;;;;;;7.06;100.00;99895.84;1712000;82;21207;-36
2021/12/11 07:13:37;;;;;;;30.20;16.12;;;;;;;7.03;100.00;99912.75;1714653;82;21017;-44
2021/12/11 07:16:04;;;;;;;32.23;17.07;;;;;;;7.00;100.00;99911.84;1710181;84;21595;-45
2021/12/11 07:18:31;;;;;;;29.42;17.45;;;;;;;6.98;100.00;99918.34;1701939;84;21009;-38
2021/12/11 07:20:58;;;;;;;23.95;16.48;;;;;;;6.97;100.00;99927.44;1706092;83;21548;-38
2021/12/11 07:23:25;;;;;;;29.80;18.35;;;;;;;6.92;100.00;99930.86;1717724;82;20981;-38
2021/12/11 07:26:14;;;;;;;32.88;18.05;;;;;;;6.88;100.00;99934.28;1704964;84;21036;-46
2021/12/11 07:28:40;;;;;;;26.87;17.20;;;;;;;6.85;100.00;99929.06;1699291;84;20979;-45
2021/12/11 07:31:06;;;;;;;26.70;17.62;;;;;;;6.84;100.00;99939.44;1699887;84;21049;-45
2021/12/11 07:33:33;;;;;;;29.87;18.20;;;;;;;6.85;100.00;99938.17;1717364;82;21006;-47
2021/12/11 07:36:01;;;;;;;29.48;18.32;;;;;;;6.86;100.00;99936.01;1739386;82;21056;-38
2021/12/11 07:38:28;;;;;;;28.50;17.57;;;;;;;6.88;100.00;99937.31;1706585;83;21706;-38
2021/12/11 07:40:57;;;;;;;26.95;17.15;;;;;;;6.89;100.00;99935.15;1712609;82;21073;-38
2021/12/11 07:43:26;;;;;;;26.62;16.52;;;;;;;6.90;100.00;99950.80;1723474;82;21033;-46
2021/12/11 07:45:53;;;;;;;30.80;17.17;;;;;;;6.91;100.00;99947.33;1741682;82;21144;-38
2021/12/11 07:48:20;;;;;;;30.00;17.52;;;;;;;6.92;100.00;99955.56;1740693;82;21611;-46
2021/12/11 07:50:47;;;;;;;27.17;17.40;;;;;;;6.93;100.00;99967.70;1740764;82;21521;-46
2021/12/11 07:53:14;;;;;;;26.95;16.55;;;;;;;6.96;100.00;99967.28;1712149;82;21057;-46
2021/12/11 07:55:42;;;;;;;25.75;16.80;;;;;;;6.96;100.00;99964.69;1723783;82;21957;-39
2021/12/11 07:58:09;;;;;;;28.98;18.25;;;;;;;6.97;100.00;99975.12;1713201;82;21009;-45
2021/12/11 08:00:38;;;;;;;26.62;16.57;;;;;;;6.98;100.00;99981.20;1713362;82;21609;-44
2021/12/11 08:03:05;;;;;;;31.07;15.95;;;;;;;6.99;100.00;99985.53;1714426;82;21639;-38
2021/12/11 08:05:32;;;;;;;24.75;15.00;;;;;;;7.02;100.00;99994.25;1689971;83;21488;-38
2021/12/11 08:08:02;;;;;;;23.20;14.70;;;;;;;7.03;100.00;99991.22;1715104;82;21017;-37
2021/12/11 08:10:30;;;;;;;21.90;14.55;;;;;;;7.06;100.00;99989.50;1713309;83;21533;-37
2021/12/11 08:12:58;;;;;;;20.62;15.08;;;;;;;7.12;100.00;99979.58;1712342;82;21028;-37
2021/12/11 08:15:26;;;;;;;23.55;15.78;;;;;;;7.17;100.00;99987.87;1713659;82;21572;-37
2021/12/11 08:17:54;;;;;;;27.17;15.90;;;;;;;7.21;100.00;99999.19;1712618;84;21543;-37
2021/12/11 08:20:27;;;;;;;21.10;14.93;;;;;;;7.22;100.00;99993.55;1713065;84;21108;-37
2021/12/11 08:22:54;;;;;;;21.70;14.60;;;;;;;7.22;100.00;100000.92;1711616;83;21041;-45
2021/12/11 08:25:23;;;;;;;20.82;14.47;;;;;;;7.22;100.00;99990.95;1711067;84;21057;-45
2021/12/11 08:27:50;;;;;;;24.90;15.63;;;;;;;7.22;100.00;99987.05;1729889;82;21048;-37
2021/12/11 08:30:18;;;;;;;22.32;14.28;;;;;;;7.20;100.00;99991.81;1744668;82;21130;-44
2021/12/11 08:32:44;;;;;;;26.55;14.85;;;;;;;7.18;100.00;99987.00;1722752;82;21101;-37
2021/12/11 08:35:12;;;;;;;25.10;13.03;;;;;;;7.18;100.00;99992.64;1708863;82;21036;-37
2021/12/11 08:37:40;;;;;;;22.27;14.05;;;;;;;7.16;100.00;99987.86;1714918;82;21035;-45
2021/12/11 08:40:12;;;;;;;20.85;13.62;;;;;;;7.18;100.00;99983.09;1717031;82;21048;-45
2021/12/11 08:42:39;;;;;;;25.92;14.43;;;;;;;7.20;100.00;99980.10;1715672;82;21119;-44
2021/12/11 08:45:09;;;;;;;21.90;13.85;;;;;;;7.23;100.00;99983.15;1709056;84;21085;-36
2021/12/11 08:47:40;;;;;;;19.82;13.35;;;;;;;7.24;100.00;99971.00;1713524;82;21124;-44
2021/12/11 08:50:11;;;;;;;18.82;13.43;;;;;;;7.25;100.00;99972.34;1711468;84;21080;-38
2021/12/11 08:52:40;;;;;;;23.77;14.45;;;;;;;7.28;100.00;99969.75;1703819;83;21112;-44
2021/12/11 08:55:12;;;;;;;18.62;13.32;;;;;;;7.33;100.00;99965.45;1710585;83;21061;-44
2021/12/11 08:57:41;;;;;;;19.20;12.68;;;;;;;7.36;100.00;99973.30;1708920;82;21049;-38
2021/12/11 09:00:14;;;;;;;20.00;13.40;;;;;;;7.41;100.00;99977.22;1701076;82;21073;-45
2021/12/11 09:02:45;;;;;;;22.35;13.83;;;;;;;7.45;100.00;99981.59;1705652;84;21061;-38
2021/12/11 09:05:36;;;;;;;19.05;12.58;;;;;;;7.47;100.00;99978.56;1708857;84;21057;-46
2021/12/11 09:08:12;;;;;;;20.65;12.40;;;;;;;7.50;100.00;99975.12;1730081;82;21545;-45
2021/12/11 09:10:55;;;;;;;16.45;10.88;;;;;;;7.53;100.00;99977.73;1708947;84;21049;-38
2021/12/11 09:13:34;;;;;;;19.95;11.12;;;;;;;7.56;100.00;99969.97;1708912;84;21068;-45
2021/12/11 09:16:14;;;;;;;21.37;12.23;;;;;;;7.57;100.00;99973.00;1708502;84;21041;-38
2021/12/11 09:18:53;;;;;;;21.62;11.35;;;;;;;7.58;100.00;99978.21;1713884;82;21017;-38
2021/12/11 09:21:30;;;;;;;20.50;11.85;;;;;;;7.64;100.00;99980.86;1707833;84;21109;-45
2021/12/11 09:24:22;;;;;;;19.02;11.45;;;;;;;7.70;100.00;99991.31;1726388;82;21045;-45
2021/12/11 09:27:02;;;;;;;19.35;12.03;;;;;;;7.74;100.00;99988.31;1741577;82;21627;-38
2021/12/11 09:29:48;;;;;;;23.85;11.95;;;;;;;7.77;100.00;99984.44;1721105;82;21587;-46
2021/12/11 09:32:29;;;;;;;22.35;11.63;;;;;;;7.83;100.00;99987.52;1724873;82;21062;-40
2021/12/11 09:35:07;;;;;;;18.32;11.20;;;;;;;7.85;100.00;99987.95;1712404;82;21128;-37
2021/12/11 09:37:35;;;;;;;19.65;12.30;;;;;;;7.86;100.00;99992.30;1717424;82;21057;-38
2021/12/11 09:40:16;;;;;;;24.77;11.03;;;;;;;7.85;100.00;99995.77;1736652;82;21065;-39
2021/12/11 09:42:43;;;;;;;22.02;13.30;;;;;;;7.87;100.00;99995.77;1713991;82;21127;-37
2021/12/11 09:45:18;;;;;;;22.42;12.30;;;;;;;7.86;100.00;100010.53;1724688;82;21563;-45
2021/12/11 09:47:51;;;;;;;23.87;13.32;;;;;;;7.83;100.00;99994.89;1747593;82;21648;-37
2021/12/11 09:50:23;;;;;;;24.25;13.45;;;;;;;7.83;100.00;100004.02;1750450;82;21508;-37
2021/12/11 09:52:50;;;;;;;21.50;12.23;;;;;;;7.86;100.00;99997.94;1725829;82;21425;-38
2021/12/11 09:55:24;;;;;;;25.32;12.88;;;;;;;7.88;100.00;99999.67;1721590;83;21119;-37
2021/12/11 09:57:54;;;;;;;25.27;12.43;;;;;;;7.88;100.00;99998.38;1719750;83;21041;-38
2021/12/11 10:00:26;;;;;;;22.73;12.07;;;;;;;7.91;100.00;100000.14;1719703;83;21056;-38
2021/12/11 10:02:53;;;;;;;22.03;12.87;;;;;;;7.93;100.00;99995.80;1719235;82;21095;-45
2021/12/11 10:05:36;;;;;;;25.62;13.83;;;;;;;7.94;100.00;99991.02;1721577;83;21270;-45
2021/12/11 10:08:57;;;;;;;26.52;13.20;;;;;;;7.95;100.00;99995.40;1714725;83;21108;-39
2021/12/11 10:10:32;;;;;;;26.05;13.55;;;;;;;7.92;100.00;99987.55;1671515;83;21097;-45
2021/12/11 10:13:00;;;;;;;24.82;13.48;;;;;;;7.92;100.00;99991.46;1719052;82;21072;-36
2021/12/11 10:15:34;;;;;;;20.85;12.37;;;;;;;7.90;100.00;99997.11;1715165;83;21660;-43
2021/12/11 10:18:18;;;;;;;25.20;13.75;;;;;;;7.90;100.00;99995.80;1714770;83;21710;-45
2021/12/11 10:20:57;;;;;;;29.95;14.50;;;;;;;7.92;100.00;99994.06;1714795;83;21128;-37
2021/12/11 10:23:28;;;;;;;28.77;14.58;;;;;;;7.94;100.00;99990.62;1727024;82;21029;-38
2021/12/11 10:25:58;;;;;;;28.07;14.35;;;;;;;7.97;100.00;99999.74;1751388;82;21040;-37
2021/12/11 10:28:28;;;;;;;31.27;14.95;;;;;;;7.98;100.00;100001.48;1741418;82;21083;-38
2021/12/11 10:31:02;;;;;;;29.15;14.40;;;;;;;8.01;100.00;100005.86;1718598;83;21532;-45
2021/12/11 10:33:31;;;;;;;28.17;16.00;;;;;;;8.02;100.00;100004.13;1718800;83;20997;-45
2021/12/11 10:36:02;;;;;;;28.57;15.72;;;;;;;8.03;100.00;100000.64;1723866;82;20993;-40
2021/12/11 10:38:29;;;;;;;27.07;14.93;;;;;;;8.06;100.00;100001.95;1719145;83;21092;-45
2021/12/11 10:40:58;;;;;;;25.55;15.95;;;;;;;8.11;100.00;100001.55;1719232;83;21663;-45
2021/12/11 10:43:46;;;;;;;29.72;14.85;;;;;;;8.13;100.00;100011.56;1718741;83;21076;-45
2021/12/11 10:46:15;;;;;;;25.80;14.63;;;;;;;8.14;100.00;100011.56;1718831;83;21084;-45
2021/12/11 10:48:43;;;;;;;28.02;14.60;;;;;;;8.15;100.00;100010.70;1721643;83;21103;-38
2021/12/11 10:51:17;;;;;;;23.27;14.07;;;;;;;8.15;100.00;100009.83;1721841;83;21069;-38
2021/12/11 10:53:46;;;;;;;28.35;15.40;;;;;;;8.13;100.00;99998.10;1721599;83;21073;-38
2021/12/11 10:56:16;;;;;;;26.93;14.58;;;;;;;8.10;100.00;100000.67;1724787;83;21116;-45
2021/12/11 10:58:47;;;;;;;32.33;14.95;;;;;;;8.10;100.00;99998.50;1721430;83;21103;-38
2021/12/11 11:01:27;;;;;;;28.35;15.32;;;;;;;8.09;100.00;100008.06;1721567;83;21151;-45
2021/12/11 11:03:58;;;;;;;26.55;15.03;;;;;;;8.08;100.00;100002.41;1721313;83;21093;-38
2021/12/11 11:06:24;;;;;;;31.97;15.80;;;;;;;8.07;100.00;100007.19;1721705;83;21084;-38
2021/12/11 11:08:53;;;;;;;26.12;15.18;;;;;;;8.07;100.00;100001.11;1721802;83;21084;-37
2021/12/11 11:11:23;;;;;;;29.98;14.45;;;;;;;8.09;100.00;99996.77;1721707;83;21650;-37
2021/12/11 11:13:51;;;;;;;31.93;16.27;;;;;;;8.08;100.00;99998.94;1722781;83;21012;-44
2021/12/11 11:16:19;;;;;;;33.33;17.20;;;;;;;8.11;100.00;100005.02;1721242;83;21064;-44
2021/12/11 11:18:48;;;;;;;34.30;17.65;;;;;;;8.12;100.00;100005.92;1721185;83;21045;-36
2021/12/11 11:21:20;;;;;;;28.15;17.00;;;;;;;8.13;100.00;99998.53;1721240;83;21055;-37
2021/12/11 11:23:47;;;;;;;31.93;16.97;;;;;;;8.14;100.00;99995.93;1721256;83;21063;-38
2021/12/11 11:26:18;;;;;;;34.58;17.77;;;;;;;8.15;100.00;99998.10;1721173;83;20997;-44
2021/12/11 11:28:46;;;;;;;32.65;18.00;;;;;;;8.14;100.00;100018.52;1722308;83;21095;-44
2021/12/11 11:31:17;;;;;;;32.67;17.67;;;;;;;8.14;100.00;100032.41;1749543;82;21115;-37
2021/12/11 11:33:45;;;;;;;32.75;18.60;;;;;;;8.14;100.00;100032.84;1736784;81;21389;-37
2021/12/11 11:36:14;;;;;;;32.90;17.10;;;;;;;8.14;100.00;100041.97;1720250;83;21033;-37
2021/12/11 11:38:46;;;;;;;27.80;16.27;;;;;;;8.11;100.00;100028.91;1729240;82;21630;-44
2021/12/11 11:41:18;;;;;;;29.33;15.17;;;;;;;8.08;100.00;100029.77;1753285;82;21060;-44
2021/12/11 11:43:45;;;;;;;27.02;13.88;;;;;;;8.07;100.00;100028.47;1736197;81;21119;-44
2021/12/11 11:46:12;;;;;;;25.32;14.55;;;;;;;8.05;100.00;100030.17;1713783;84;21563;-43
2021/12/11 11:48:41;;;;;;;21.97;14.95;;;;;;;8.04;100.00;100035.82;1721179;82;21061;-44
2021/12/11 11:51:13;;;;;;;25.08;15.28;;;;;;;8.04;100.00;100029.73;1744778;82;21064;-37
2021/12/11 11:53:40;;;;;;;23.97;14.57;;;;;;;8.04;100.00;100028.44;1733259;82;21694;-37
2021/12/11 11:56:10;;;;;;;25.68;13.25;;;;;;;8.04;100.00;100034.52;1714410;84;21666;-38
2021/12/11 11:58:38;;;;;;;19.75;13.58;;;;;;;8.05;100.00;100039.29;1720177;82;21034;-36
2021/12/11 12:01:13;;;;;;;18.35;13.05;;;;;;;8.06;100.00;100048.84;1744842;82;21081;-43
2021/12/11 12:03:40;;;;;;;23.87;14.50;;;;;;;8.05;100.00;100050.58;1742195;82;21095;-36
2021/12/11 12:06:12;;;;;;;22.25;14.03;;;;;;;8.06;100.00;100049.75;1714516;83;21072;-43
2021/12/11 12:08:43;;;;;;;19.52;12.73;;;;;;;8.05;100.00;100073.16;1720694;82;21072;-37
2021/12/11 12:11:10;;;;;;;18.23;13.32;;;;;;;8.06;100.00;100080.11;1744770;82;21683;-37
2021/12/11 12:13:37;;;;;;;20.55;13.90;;;;;;;8.06;100.00;100085.33;1733241;82;21588;-37
2021/12/11 12:16:11;;;;;;;27.45;15.43;;;;;;;8.04;100.00;100093.14;1692281;84;21104;-37
2021/12/11 12:18:41;;;;;;;27.40;18.25;;;;;;;8.05;100.00;100081.84;1709738;84;21025;-37
2021/12/11 12:21:07;;;;;;;24.47;16.02;;;;;;;8.06;100.00;100078.81;1708934;84;21107;-45
